createdAt,value
2023-04-20T00:00:14.589Z,18.60
2023-04-20T00:02:44.252Z,17.87
2023-04-20T00:05:13.690Z,18.57
2023-04-20T00:07:43.111Z,19.40
2023-04-20T00:10:14.263Z,20.63
2023-04-20T00:12:43.544Z,19.53
2023-04-20T00:15:12.112Z,22.37
2023-04-20T00:17:40.626Z,19.27
2023-04-20T00:20:11.221Z,25.73
2023-04-20T00:22:39.301Z,20.67
2023-04-20T00:25:08.368Z,18.80
2023-04-20T00:27:36.680Z,19.33
2023-04-20T00:30:07.344Z,17.47
2023-04-20T00:32:35.519Z,18.63
2023-04-20T00:35:04.076Z,19.97
2023-04-20T00:37:33.504Z,17.20
2023-04-20T00:40:01.648Z,16.57
2023-04-20T00:42:29.729Z,18.97
2023-04-20T00:44:57.823Z,16.17
2023-04-20T00:47:26.133Z,16.97
2023-04-20T00:49:55.895Z,15.00
2023-04-20T00:52:24.167Z,16.03
2023-04-20T00:54:54.101Z,16.87
2023-04-20T00:57:23.989Z,17.07
2023-04-20T00:59:52.458Z,14.07
2023-04-20T01:02:20.727Z,13.23
2023-04-20T01:04:49.340Z,16.03
2023-04-20T01:07:17.823Z,14.60
2023-04-20T01:09:46.088Z,12.53
2023-04-20T01:12:15.633Z,13.83
2023-04-20T01:14:43.773Z,12.50
2023-04-20T01:17:11.980Z,11.47
2023-04-20T01:19:40.123Z,11.97
2023-04-20T01:22:08.497Z,11.83
2023-04-20T01:24:38.150Z,14.10
2023-04-20T01:27:06.338Z,12.80
2023-04-20T01:29:34.527Z,14.27
2023-04-20T01:32:02.667Z,14.13
2023-04-20T01:34:30.942Z,14.00
2023-04-20T01:36:59.526Z,16.53
2023-04-20T01:39:27.820Z,13.50
2023-04-20T01:41:57.344Z,13.30
2023-04-20T01:44:25.452Z,12.00
2023-04-20T01:46:53.593Z,13.10
2023-04-20T01:49:21.831Z,14.03
2023-04-20T01:51:49.972Z,11.30
2023-04-20T01:54:18.167Z,12.87
2023-04-20T01:56:46.242Z,12.77
2023-04-20T01:59:16.003Z,12.30
2023-04-20T02:01:44.329Z,12.13
2023-04-20T02:04:12.373Z,13.97
2023-04-20T02:06:41.074Z,9.80
2023-04-20T02:09:10.015Z,15.20
2023-04-20T02:11:38.356Z,12.70
2023-04-20T02:14:06.469Z,12.57
2023-04-20T02:16:37.926Z,13.40
2023-04-20T02:19:06.428Z,12.37
2023-04-20T02:21:34.597Z,11.57
2023-04-20T02:24:02.846Z,13.87
2023-04-20T02:26:31.082Z,12.27
2023-04-20T02:28:59.115Z,13.03
2023-04-20T02:31:27.447Z,14.93
2023-04-20T02:33:57.157Z,14.63
2023-04-20T02:36:25.222Z,12.90
2023-04-20T02:38:53.304Z,12.70
2023-04-20T02:41:21.488Z,11.60
2023-04-20T02:43:52.260Z,12.27
2023-04-20T02:46:20.624Z,12.37
2023-04-20T02:48:48.794Z,12.93
2023-04-20T02:51:18.264Z,15.13
2023-04-20T02:53:46.359Z,13.37
2023-04-20T02:56:14.598Z,11.40
2023-04-20T02:58:43.034Z,15.70
2023-04-20T03:01:11.178Z,12.20
2023-04-20T03:03:41.915Z,15.13
2023-04-20T03:06:10.154Z,12.10
2023-04-20T03:08:40.035Z,12.87
2023-04-20T03:11:08.220Z,13.93
2023-04-20T03:13:36.413Z,13.53
2023-04-20T03:16:05.175Z,13.10
2023-04-20T03:18:33.744Z,16.40
2023-04-20T03:21:01.823Z,13.77
2023-04-20T03:23:29.929Z,17.77
2023-04-20T03:25:59.505Z,22.57
2023-04-20T03:28:27.680Z,24.07
2023-04-20T03:30:57.953Z,16.07
2023-04-20T03:33:27.832Z,13.30
2023-04-20T03:35:56.477Z,13.80
2023-04-20T03:38:24.563Z,14.20
2023-04-20T03:40:52.740Z,14.40
2023-04-20T03:43:22.119Z,14.30
2023-04-20T03:45:50.212Z,11.63
2023-04-20T03:48:18.356Z,16.90
2023-04-20T03:50:46.524Z,13.57
2023-04-20T03:53:14.655Z,13.60
2023-04-20T03:55:42.670Z,12.90
2023-04-20T03:58:10.790Z,11.63
2023-04-20T04:00:40.334Z,13.57
2023-04-20T04:03:08.644Z,14.53
2023-04-20T04:05:37.180Z,11.57
2023-04-20T04:08:05.385Z,12.77
2023-04-20T04:10:33.593Z,11.70
2023-04-20T04:13:01.624Z,13.27
2023-04-20T04:15:29.772Z,17.73
2023-04-20T04:18:00.270Z,11.50
2023-04-20T04:20:28.365Z,14.00
2023-04-20T04:22:57.486Z,10.27
2023-04-20T04:25:25.872Z,13.67
2023-04-20T04:27:54.613Z,15.57
2023-04-20T04:30:24.279Z,11.27
2023-04-20T04:32:52.339Z,14.10
2023-04-20T04:35:22.117Z,12.83
2023-04-20T04:37:50.244Z,12.60
2023-04-20T04:40:18.464Z,12.30
2023-04-20T04:42:48.866Z,11.87
2023-04-20T04:45:18.545Z,17.47
2023-04-20T04:47:47.082Z,14.60
2023-04-20T04:50:15.457Z,15.50
2023-04-20T04:52:45.207Z,15.00
2023-04-20T04:55:15.034Z,11.53
2023-04-20T04:57:44.472Z,14.87
2023-04-20T05:00:13.536Z,11.40
2023-04-20T05:02:41.905Z,17.53
2023-04-20T05:05:11.741Z,11.40
2023-04-20T05:07:40.299Z,12.60
2023-04-20T05:10:10.518Z,14.30
2023-04-20T05:12:39.723Z,13.27
2023-04-20T05:15:09.035Z,12.33
2023-04-20T05:17:37.257Z,15.33
2023-04-20T05:20:06.951Z,11.93
2023-04-20T05:22:35.063Z,19.97
2023-04-20T05:25:03.458Z,15.67
2023-04-20T05:27:34.525Z,13.00
2023-04-20T05:30:16.523Z,13.30
2023-04-20T05:32:51.468Z,14.90
2023-04-20T05:35:21.388Z,10.50
2023-04-20T05:37:49.868Z,13.43
2023-04-20T05:40:17.891Z,15.77
2023-04-20T05:42:47.653Z,12.87
2023-04-20T05:45:15.879Z,11.70
2023-04-20T05:47:43.997Z,15.57
2023-04-20T05:50:12.143Z,10.57
2023-04-20T05:52:40.330Z,13.87
2023-04-20T05:55:09.441Z,11.70
2023-04-20T05:57:42.803Z,11.60
2023-04-20T06:00:14.600Z,11.10
2023-04-20T06:02:43.773Z,13.07
2023-04-20T06:05:12.950Z,14.70
2023-04-20T06:07:41.345Z,13.27
2023-04-20T06:10:10.488Z,13.93
2023-04-20T06:12:38.827Z,10.10
2023-04-20T06:15:25.394Z,10.30
2023-04-20T06:17:55.806Z,14.30
2023-04-20T06:20:24.440Z,16.03
2023-04-20T06:22:52.813Z,11.87
2023-04-20T06:25:20.973Z,12.73
2023-04-20T06:27:51.311Z,9.10
2023-04-20T06:30:20.724Z,11.18
2023-04-20T06:32:48.925Z,9.17
2023-04-20T06:35:18.600Z,10.43
2023-04-20T06:37:46.810Z,14.35
2023-04-20T06:40:16.254Z,8.38
2023-04-20T06:42:44.580Z,12.13
2023-04-20T06:45:13.773Z,10.23
2023-04-20T06:47:41.933Z,11.13
2023-04-20T06:50:17.185Z,14.17
2023-04-20T06:52:48.359Z,10.60
2023-04-20T06:55:16.725Z,11.23
2023-04-20T06:57:44.866Z,8.88
2023-04-20T07:00:14.245Z,15.00
2023-04-20T07:02:46.708Z,13.80
2023-04-20T07:05:16.029Z,12.05
2023-04-20T07:07:44.995Z,19.57
2023-04-20T07:10:16.426Z,11.32
2023-04-20T07:12:45.186Z,11.45
2023-04-20T07:15:13.874Z,12.15
2023-04-20T07:17:42.167Z,12.65
2023-04-20T07:20:11.221Z,11.57
2023-04-20T07:22:40.383Z,11.93
2023-04-20T07:25:10.393Z,12.32
2023-04-20T07:27:42.169Z,9.05
2023-04-20T07:30:12.363Z,11.80
2023-04-20T07:32:41.589Z,9.88
2023-04-20T07:35:10.937Z,11.55
2023-04-20T07:37:39.464Z,11.10
2023-04-20T07:40:09.816Z,11.75
2023-04-20T07:42:39.429Z,9.18
2023-04-20T07:45:09.109Z,10.55
2023-04-20T07:47:37.642Z,10.52
2023-04-20T07:50:07.168Z,11.63
2023-04-20T07:52:35.844Z,11.98
2023-04-20T07:55:03.996Z,9.10
2023-04-20T07:57:32.169Z,11.50
2023-04-20T08:00:01.771Z,9.60
2023-04-20T08:02:30.077Z,10.38
2023-04-20T08:04:58.566Z,9.77
2023-04-20T08:07:26.952Z,11.80
2023-04-20T08:09:56.930Z,12.60
2023-04-20T08:12:26.375Z,11.27
2023-04-20T08:14:55.065Z,9.15
2023-04-20T08:17:24.611Z,14.77
2023-04-20T08:19:52.881Z,10.10
2023-04-20T08:22:21.108Z,24.13
2023-04-20T08:24:49.324Z,10.95
2023-04-20T08:27:17.535Z,12.43
2023-04-20T08:29:47.451Z,11.77
2023-04-20T08:32:15.674Z,9.52
2023-04-20T08:34:45.232Z,11.23
2023-04-20T08:37:13.468Z,9.98
2023-04-20T08:39:41.616Z,12.60
2023-04-20T08:42:09.898Z,10.32
2023-04-20T08:44:38.246Z,11.50
2023-04-20T08:47:06.717Z,11.35
2023-04-20T08:49:36.948Z,10.35
2023-04-20T08:52:07.316Z,10.93
2023-04-20T08:54:42.814Z,14.00
2023-04-20T08:57:17.727Z,12.07
2023-04-20T08:59:46.184Z,9.70
2023-04-20T09:02:15.340Z,10.38
2023-04-20T09:04:43.703Z,9.50
2023-04-20T09:07:20.984Z,9.95
2023-04-20T09:09:56.496Z,9.75
2023-04-20T09:12:25.501Z,10.20
2023-04-20T09:14:56.108Z,10.45
2023-04-20T09:17:35.736Z,10.23
2023-04-20T09:20:07.064Z,8.57
2023-04-20T09:22:37.631Z,8.93
2023-04-20T09:25:14.785Z,12.07
2023-04-20T09:27:42.980Z,9.85
2023-04-20T09:30:12.348Z,8.45
2023-04-20T09:32:40.491Z,12.55
2023-04-20T09:35:09.240Z,13.68
2023-04-20T09:37:48.879Z,9.57
2023-04-20T09:40:19.527Z,9.63
2023-04-20T09:42:50.181Z,10.50
2023-04-20T09:45:19.812Z,14.43
2023-04-20T09:47:50.144Z,11.25
2023-04-20T09:50:26.859Z,11.38
2023-04-20T09:53:02.648Z,11.40
2023-04-20T09:55:32.557Z,8.95
2023-04-20T09:58:04.134Z,8.02
2023-04-20T10:00:32.687Z,10.15
2023-04-20T10:03:01.004Z,8.43
2023-04-20T10:05:36.762Z,8.70
2023-04-20T10:08:07.200Z,7.45
2023-04-20T10:10:46.275Z,8.95
2023-04-20T10:13:14.795Z,7.90
2023-04-20T10:15:43.860Z,8.02
2023-04-20T10:18:20.508Z,7.65
2023-04-20T10:20:48.749Z,8.85
2023-04-20T10:23:20.165Z,10.27
2023-04-20T10:25:58.749Z,19.67
2023-04-20T10:28:26.887Z,7.95
2023-04-20T10:30:55.393Z,10.13
2023-04-20T10:33:23.991Z,10.68
2023-04-20T10:35:55.046Z,8.25
2023-04-20T10:38:36.197Z,9.95
2023-04-20T10:41:08.517Z,11.13
2023-04-20T10:43:39.200Z,7.70
2023-04-20T10:46:15.635Z,12.68
2023-04-20T10:48:55.429Z,9.05
2023-04-20T10:51:24.942Z,11.05
2023-04-20T10:54:06.262Z,8.77
2023-04-20T10:56:41.624Z,6.60
2023-04-20T10:59:10.388Z,7.63
2023-04-20T11:01:38.864Z,6.88
2023-04-20T11:04:07.385Z,7.55
2023-04-20T11:06:35.854Z,9.23
2023-04-20T11:09:05.713Z,7.60
2023-04-20T11:11:33.851Z,9.05
2023-04-20T11:14:08.686Z,8.60
2023-04-20T11:16:49.645Z,12.10
2023-04-20T11:19:25.339Z,9.68
2023-04-20T11:21:53.939Z,10.25
2023-04-20T11:24:25.051Z,7.77
2023-04-20T11:26:56.368Z,7.77
2023-04-20T11:29:33.350Z,9.20
2023-04-20T11:32:05.713Z,10.00
2023-04-20T11:34:34.754Z,10.53
2023-04-20T11:37:05.594Z,13.43
2023-04-20T11:39:35.626Z,16.20
2023-04-20T11:42:04.478Z,17.10
2023-04-20T11:44:33.019Z,13.57
2023-04-20T11:47:02.086Z,13.17
2023-04-20T11:49:31.007Z,15.93
2023-04-20T11:51:59.316Z,16.83
2023-04-20T11:54:28.307Z,14.50
2023-04-20T11:56:57.759Z,12.30
2023-04-20T11:59:26.164Z,14.32
2023-04-20T12:01:54.272Z,11.38
2023-04-20T12:04:23.069Z,10.77
2023-04-20T12:06:51.732Z,11.95
2023-04-20T12:09:20.043Z,10.27
2023-04-20T12:11:48.933Z,8.65
2023-04-20T12:14:18.709Z,10.43
2023-04-20T12:16:47.242Z,8.05
2023-04-20T12:19:17.440Z,10.13
2023-04-20T12:21:47.475Z,7.50
2023-04-20T12:24:16.058Z,7.45
2023-04-20T12:26:44.355Z,9.60
2023-04-20T12:29:12.974Z,7.22
2023-04-20T12:31:42.569Z,6.82
2023-04-20T12:34:10.875Z,7.32
2023-04-20T12:36:39.260Z,7.28
2023-04-20T12:39:07.706Z,8.55
2023-04-20T12:41:36.433Z,9.05
2023-04-20T12:44:07.081Z,7.75
2023-04-20T12:46:36.800Z,7.25
2023-04-20T12:49:06.667Z,8.10
2023-04-20T12:51:34.814Z,6.75
2023-04-20T12:54:03.253Z,6.18
2023-04-20T12:56:31.632Z,8.13
2023-04-20T12:58:59.896Z,7.70
2023-04-20T13:01:28.238Z,7.28
2023-04-20T13:03:57.511Z,10.27
2023-04-20T13:06:28.105Z,8.18
2023-04-20T13:08:56.146Z,8.02
2023-04-20T13:11:25.995Z,6.72
2023-04-20T13:13:56.647Z,6.50
2023-04-20T13:16:25.079Z,6.88
2023-04-20T13:18:53.984Z,6.47
2023-04-20T13:21:22.066Z,7.07
2023-04-20T13:23:53.114Z,6.00
2023-04-20T13:26:22.215Z,6.88
2023-04-20T13:28:50.818Z,6.75
2023-04-20T13:31:19.108Z,5.25
2023-04-20T13:33:47.304Z,4.95
2023-04-20T13:36:15.482Z,5.25
2023-04-20T13:38:43.611Z,9.68
2023-04-20T13:41:13.197Z,9.32
2023-04-20T13:43:41.385Z,6.93
2023-04-20T13:46:12.647Z,6.38
2023-04-20T13:48:40.906Z,6.05
2023-04-20T13:51:09.494Z,6.38
2023-04-20T13:53:37.744Z,5.18
2023-04-20T13:56:07.168Z,4.75
2023-04-20T13:58:37.257Z,6.10
2023-04-20T14:01:09.202Z,5.78
2023-04-20T14:03:37.373Z,4.28
2023-04-20T14:06:06.164Z,5.60
2023-04-20T14:08:34.406Z,6.80
2023-04-20T14:11:02.559Z,6.72
2023-04-20T14:13:30.711Z,5.90
2023-04-20T14:16:00.583Z,6.55
2023-04-20T14:18:28.818Z,7.07
2023-04-20T14:20:56.887Z,9.48
2023-04-20T14:23:25.089Z,5.35
2023-04-20T14:25:53.409Z,6.38
2023-04-20T14:28:21.735Z,8.73
2023-04-20T14:30:51.305Z,7.55
2023-04-20T14:33:21.016Z,10.35
2023-04-20T14:35:49.483Z,5.72
2023-04-20T14:38:17.617Z,7.22
2023-04-20T14:40:46.234Z,5.43
2023-04-20T14:43:14.427Z,4.82
2023-04-20T14:45:44.841Z,5.07
2023-04-20T14:48:12.952Z,5.93
2023-04-20T14:50:43.382Z,5.60
2023-04-20T14:53:11.542Z,7.97
2023-04-20T14:55:39.936Z,8.85
2023-04-20T14:58:08.500Z,6.35
2023-04-20T15:00:36.743Z,8.35
2023-04-20T15:03:05.365Z,5.70
2023-04-20T15:05:33.952Z,8.10
2023-04-20T15:08:03.771Z,5.45
2023-04-20T15:10:32.292Z,6.28
2023-04-20T15:13:03.481Z,8.30
2023-04-20T15:15:46.946Z,7.88
2023-04-20T15:18:16.327Z,7.30
2023-04-20T15:20:44.963Z,9.15
2023-04-20T15:23:14.625Z,15.05
2023-04-20T15:25:43.056Z,6.35
2023-04-20T15:28:12.004Z,8.55
2023-04-20T15:30:40.282Z,7.45
2023-04-20T15:33:08.907Z,9.43
2023-04-20T15:35:37.404Z,7.28
2023-04-20T15:38:05.984Z,8.98
2023-04-20T15:40:35.762Z,7.22
2023-04-20T15:43:04.358Z,9.35
2023-04-20T15:45:32.688Z,8.63
2023-04-20T15:48:01.242Z,10.00
2023-04-20T15:50:29.750Z,13.75
2023-04-20T15:52:57.855Z,8.25
2023-04-20T15:55:26.200Z,8.18
2023-04-20T15:57:58.256Z,6.82
2023-04-20T16:00:26.553Z,9.40
2023-04-20T16:02:54.974Z,7.20
2023-04-20T16:05:24.091Z,6.47
2023-04-20T16:07:52.126Z,12.07
2023-04-20T16:10:20.377Z,8.13
2023-04-20T16:12:48.542Z,7.93
2023-04-20T16:15:18.019Z,5.47
2023-04-20T16:17:46.507Z,6.78
2023-04-20T16:20:15.005Z,7.60
2023-04-20T16:22:43.126Z,6.70
2023-04-20T16:25:15.671Z,6.75
2023-04-20T16:27:43.808Z,6.95
2023-04-20T16:30:12.950Z,7.75
2023-04-20T16:32:43.121Z,12.63
2023-04-20T16:35:11.643Z,6.32
2023-04-20T16:37:40.985Z,6.55
2023-04-20T16:40:10.381Z,5.57
2023-04-20T16:42:38.573Z,7.32
2023-04-20T16:45:07.919Z,5.88
2023-04-20T16:47:36.243Z,5.72
2023-04-20T16:50:07.710Z,5.82
2023-04-20T16:52:36.370Z,8.32
2023-04-20T16:55:04.515Z,8.48
2023-04-20T16:57:32.842Z,8.38
2023-04-20T17:00:00.957Z,5.90
2023-04-20T17:02:32.925Z,7.18
2023-04-20T17:05:01.507Z,7.43
2023-04-20T17:07:31.612Z,9.38
2023-04-20T17:10:00.020Z,9.55
2023-04-20T17:12:28.250Z,7.05
2023-04-20T17:14:56.653Z,9.02
2023-04-20T17:17:26.238Z,9.25
2023-04-20T17:19:54.430Z,5.68
2023-04-20T17:22:22.600Z,8.68
2023-04-20T17:24:52.263Z,7.78
2023-04-20T17:27:21.660Z,6.60
2023-04-20T17:29:50.093Z,5.82
2023-04-20T17:32:18.899Z,9.07
2023-04-20T17:34:48.641Z,8.07
2023-04-20T17:37:16.931Z,8.80
2023-04-20T17:39:45.189Z,9.13
2023-04-20T17:42:15.677Z,7.88
2023-04-20T17:44:43.698Z,7.47
2023-04-20T17:47:15.040Z,7.30
2023-04-20T17:49:43.465Z,7.82
2023-04-20T17:52:15.360Z,6.22
2023-04-20T17:54:44.006Z,6.88
2023-04-20T17:57:14.531Z,10.70
2023-04-20T17:59:43.044Z,6.20
2023-04-20T18:02:11.961Z,6.30
2023-04-20T18:04:40.213Z,7.43
2023-04-20T18:07:09.123Z,4.95
2023-04-20T18:09:39.163Z,9.02
2023-04-20T18:12:10.710Z,6.78
2023-04-20T18:14:40.775Z,7.53
2023-04-20T18:17:09.274Z,7.93
2023-04-20T18:19:37.788Z,6.65
2023-04-20T18:22:06.030Z,8.45
2023-04-20T18:24:34.217Z,7.20
2023-04-20T18:27:02.545Z,7.53
2023-04-20T18:29:30.713Z,6.35
2023-04-20T18:32:01.417Z,8.30
2023-04-20T18:34:32.293Z,6.22
2023-04-20T18:37:01.069Z,5.93
2023-04-20T18:39:29.938Z,6.28
2023-04-20T18:41:59.301Z,6.85
2023-04-20T18:44:29.498Z,7.43
2023-04-20T18:46:57.999Z,6.03
2023-04-20T18:49:27.863Z,6.55
2023-04-20T18:51:55.944Z,7.13
2023-04-20T18:54:25.082Z,6.37
2023-04-20T18:56:54.992Z,7.72
2023-04-20T18:59:25.091Z,7.63
2023-04-20T19:01:53.218Z,7.37
2023-04-20T19:04:22.473Z,7.80
2023-04-20T19:06:52.458Z,9.07
2023-04-20T19:09:20.519Z,8.13
2023-04-20T19:11:48.608Z,6.40
2023-04-20T19:14:16.951Z,8.32
2023-04-20T19:16:45.342Z,9.40
2023-04-20T19:19:13.772Z,7.20
2023-04-20T19:21:41.877Z,8.67
2023-04-20T19:24:12.434Z,8.27
2023-04-20T19:26:55.407Z,9.15
2023-04-20T19:29:23.521Z,8.03
2023-04-20T19:31:51.852Z,10.67
2023-04-20T19:34:20.698Z,7.53
2023-04-20T19:36:49.117Z,8.33
2023-04-20T19:39:18.855Z,8.77
2023-04-20T19:41:48.531Z,7.80
2023-04-20T19:44:17.081Z,9.43
2023-04-20T19:46:45.592Z,8.70
2023-04-20T19:49:16.713Z,7.03
2023-04-20T19:51:45.467Z,10.90
2023-04-20T19:54:16.767Z,10.00
2023-04-20T19:56:46.276Z,10.57
2023-04-20T19:59:16.055Z,12.70
2023-04-20T20:01:44.523Z,8.93
2023-04-20T20:04:13.257Z,9.67
2023-04-20T20:06:43.963Z,10.53
2023-04-20T20:09:12.114Z,8.40
2023-04-20T20:11:42.105Z,9.70
2023-04-20T20:14:11.564Z,10.63
2023-04-20T20:16:40.019Z,8.43
2023-04-20T20:19:09.074Z,10.70
2023-04-20T20:21:37.388Z,8.37
2023-04-20T20:24:06.080Z,8.47
2023-04-20T20:26:34.553Z,7.23
2023-04-20T20:29:02.927Z,7.20
2023-04-20T20:31:32.486Z,11.57
2023-04-20T20:34:00.715Z,8.10
2023-04-20T20:36:32.101Z,10.10
2023-04-20T20:39:00.598Z,8.20
2023-04-20T20:41:30.640Z,9.13
2023-04-20T20:44:00.000Z,10.67
2023-04-20T20:46:28.257Z,9.40
2023-04-20T20:49:00.787Z,7.70
2023-04-20T20:51:29.512Z,7.47
2023-04-20T20:53:58.003Z,7.10
2023-04-20T20:56:26.431Z,9.70
2023-04-20T20:58:55.200Z,8.73
2023-04-20T21:01:23.809Z,9.37
2023-04-20T21:03:52.133Z,10.47
2023-04-20T21:06:21.779Z,7.73
2023-04-20T21:08:50.395Z,9.83
2023-04-20T21:11:19.254Z,7.23
2023-04-20T21:13:47.619Z,7.47
2023-04-20T21:16:15.782Z,7.77
2023-04-20T21:18:43.918Z,7.13
2023-04-20T21:21:13.686Z,8.47
2023-04-20T21:23:43.227Z,7.30
2023-04-20T21:26:12.231Z,7.97
2023-04-20T21:28:40.380Z,7.77
2023-04-20T21:31:08.826Z,7.47
2023-04-20T21:33:37.066Z,8.10
2023-04-20T21:36:05.527Z,8.83
2023-04-20T21:38:33.754Z,10.50
2023-04-20T21:41:03.238Z,10.03
2023-04-20T21:43:31.213Z,6.97
2023-04-20T21:45:59.685Z,8.07
2023-04-20T21:48:28.517Z,7.17
2023-04-20T21:50:56.594Z,8.60
2023-04-20T21:53:24.817Z,7.13
2023-04-20T21:55:52.870Z,8.33
2023-04-20T21:58:22.252Z,6.63
2023-04-20T22:00:51.117Z,7.93
2023-04-20T22:03:22.890Z,8.23
2023-04-20T22:05:51.299Z,11.00
2023-04-20T22:08:22.026Z,7.87
2023-04-20T22:10:50.141Z,11.00
2023-04-20T22:13:18.622Z,10.63
2023-04-20T22:15:48.808Z,9.03
2023-04-20T22:18:18.905Z,8.10
2023-04-20T22:20:47.167Z,9.07
2023-04-20T22:23:15.187Z,7.47
2023-04-20T22:25:44.093Z,7.90
2023-04-20T22:28:12.654Z,7.50
2023-04-20T22:30:40.874Z,9.50
2023-04-20T22:33:10.452Z,9.07
2023-04-20T22:35:39.243Z,10.50
2023-04-20T22:38:07.481Z,8.13
2023-04-20T22:40:35.561Z,6.00
2023-04-20T22:43:03.749Z,7.47
2023-04-20T22:45:31.996Z,7.17
2023-04-20T22:48:00.196Z,8.30
2023-04-20T22:50:29.742Z,7.00
2023-04-20T22:52:57.857Z,7.37
2023-04-20T22:55:26.185Z,8.53
2023-04-20T22:57:54.495Z,9.77
2023-04-20T23:00:22.843Z,9.00
2023-04-20T23:02:51.783Z,11.00
2023-04-20T23:05:20.484Z,11.07
2023-04-20T23:07:50.221Z,8.77
2023-04-20T23:10:19.055Z,10.50
2023-04-20T23:12:47.385Z,8.90
2023-04-20T23:15:15.462Z,11.67
2023-04-20T23:17:43.651Z,10.73
2023-04-20T23:20:14.010Z,12.40
2023-04-20T23:22:42.280Z,10.70
2023-04-20T23:25:12.025Z,11.10
2023-04-20T23:27:40.148Z,9.07
2023-04-20T23:30:09.630Z,10.37
2023-04-20T23:32:38.035Z,10.17
2023-04-20T23:35:07.089Z,10.83
2023-04-20T23:37:35.226Z,15.80
2023-04-20T23:40:06.884Z,12.03
2023-04-20T23:42:37.476Z,10.73
2023-04-20T23:45:06.425Z,11.70
2023-04-20T23:47:34.609Z,10.50
2023-04-20T23:50:02.874Z,10.43
2023-04-20T23:52:31.087Z,11.93
2023-04-20T23:54:59.309Z,9.57
2023-04-20T23:57:27.470Z,12.93
2023-04-20T23:59:57.107Z,11.80
